Time;durP1;ratioP1;P1;durP2;ratioP2;P2;SDS_P1;SDS_P2;PMS_P1;PMS_P2;Temp;Humidity;BMP_temperature;BMP_pressure;BME280_temperature;BME280_humidity;BME280_pressure;Samples;Min_cycle;Max_cycle;Signal;HPM_P1;HPM_P2
2022/06/19 00:02:05;;;;;;;15.87;5.70;;;25.10;65.70;;;;;;5116155;28;20427;-57
2022/06/19 00:04:33;;;;;;;13.50;5.50;;;25.10;67.00;;;;;;5116394;28;20478;-57
2022/06/19 00:07:01;;;;;;;10.90;5.73;;;25.10;67.60;;;;;;5116399;28;20442;-57
2022/06/19 00:09:30;;;;;;;7.10;4.53;;;25.10;66.90;;;;;;5116216;28;20466;-57
2022/06/19 00:11:57;;;;;;;13.60;5.10;;;25.10;66.70;;;;;;5116289;28;20463;-57
2022/06/19 00:14:25;;;;;;;13.30;6.20;;;25.10;66.70;;;;;;5115932;28;20453;-57
2022/06/19 00:16:53;;;;;;;11.43;5.60;;;25.20;67.50;;;;;;5115887;28;20449;-58
2022/06/19 00:19:21;;;;;;;7.13;4.63;;;25.10;68.10;;;;;;5115764;28;20459;-57
2022/06/19 00:21:48;;;;;;;15.67;4.93;;;25.10;67.40;;;;;;5116087;28;20799;-57
2022/06/19 00:24:15;;;;;;;15.60;6.13;;;25.00;68.00;;;;;;5116001;28;20442;-57
2022/06/19 00:26:44;;;;;;;9.73;4.90;;;25.00;68.30;;;;;;5115985;28;20542;-57
2022/06/19 00:29:14;;;;;;;13.20;5.13;;;25.00;68.50;;;;;;5115537;28;20656;-58
2022/06/19 00:31:41;;;;;;;7.03;4.20;;;25.00;67.80;;;;;;5115481;28;20471;-57
2022/06/19 00:34:09;;;;;;;15.37;5.60;;;25.00;66.90;;;;;;5115765;28;20538;-57
2022/06/19 00:36:36;;;;;;;9.80;5.40;;;25.10;67.70;;;;;;5115748;28;20443;-56
2022/06/19 00:39:04;;;;;;;11.33;5.67;;;25.00;67.80;;;;;;5115409;28;20457;-57
2022/06/19 00:41:39;;;;;;;11.80;5.10;;;24.80;69.30;;;;;;5115668;28;20450;-57
2022/06/19 00:44:11;;;;;;;10.43;5.03;;;24.80;68.10;;;;;;5115344;28;20427;-56
2022/06/19 00:46:51;;;;;;;7.90;5.17;;;25.00;68.30;;;;;;5115626;28;20427;-56
2022/06/19 00:49:23;;;;;;;8.93;4.97;;;24.90;68.10;;;;;;5115484;28;20458;-57
2022/06/19 00:51:55;;;;;;;13.53;5.87;;;24.80;68.00;;;;;;5115781;28;20451;-57
2022/06/19 00:54:23;;;;;;;12.73;6.40;;;24.80;68.20;;;;;;5115470;28;20510;-58
2022/06/19 00:56:50;;;;;;;10.70;5.27;;;24.60;69.80;;;;;;5115076;28;20442;-57
2022/06/19 00:59:20;;;;;;;8.80;5.33;;;24.50;69.80;;;;;;5114960;28;20549;-57
2022/06/19 01:01:47;;;;;;;8.33;4.40;;;24.60;68.90;;;;;;5115272;28;20442;-57
2022/06/19 01:04:21;;;;;;;13.43;5.90;;;24.50;69.10;;;;;;5114929;28;20486;-57
2022/06/19 01:06:48;;;;;;;14.03;6.47;;;24.50;68.50;;;;;;5114913;28;20426;-58
2022/06/19 01:09:16;;;;;;;9.50;5.33;;;24.40;69.70;;;;;;5114765;28;20549;-57
2022/06/19 01:11:44;;;;;;;11.57;4.87;;;24.40;69.70;;;;;;5115122;28;20569;-57
2022/06/19 01:14:15;;;;;;;7.87;4.37;;;24.40;69.60;;;;;;5115034;28;20447;-57
2022/06/19 01:16:43;;;;;;;11.50;5.23;;;24.40;69.20;;;;;;5114749;28;20522;-57
2022/06/19 01:19:14;;;;;;;9.27;4.27;;;24.40;69.70;;;;;;5114580;28;20458;-57
2022/06/19 01:21:49;;;;;;;8.10;4.53;;;24.40;69.80;;;;;;5114598;28;20438;-57
2022/06/19 01:24:29;;;;;;;10.23;5.13;;;24.30;69.20;;;;;;5114084;28;20426;-57
2022/06/19 01:27:01;;;;;;;11.60;6.07;;;24.30;69.70;;;;;;5114904;28;20896;-56
2022/06/19 01:29:31;;;;;;;7.83;4.73;;;24.20;70.50;;;;;;5114426;28;20498;-57
2022/06/19 01:32:01;;;;;;;11.23;3.80;;;24.20;69.70;;;;;;5114326;28;20996;-57
2022/06/19 01:34:35;;;;;;;12.73;5.13;;;24.30;69.60;;;;;;5114361;28;20803;-57
2022/06/19 01:37:07;;;;;;;10.40;4.57;;;24.30;70.30;;;;;;5114720;27;20460;-57
2022/06/19 01:39:39;;;;;;;9.63;5.00;;;24.20;70.40;;;;;;5114695;28;20529;-57
2022/06/19 01:42:10;;;;;;;11.30;4.50;;;24.00;71.40;;;;;;5114805;28;20534;-57
2022/06/19 01:44:38;;;;;;;7.10;4.87;;;24.10;71.30;;;;;;5112973;28;20459;-57
2022/06/19 01:47:05;;;;;;;9.97;4.87;;;24.20;70.60;;;;;;5114599;28;20788;-57
2022/06/19 01:49:35;;;;;;;15.60;5.10;;;24.20;70.90;;;;;;5114140;27;20468;-57
2022/06/19 01:52:04;;;;;;;9.77;5.60;;;24.10;72.30;;;;;;5114373;28;20474;-57
2022/06/19 01:54:37;;;;;;;10.77;4.40;;;24.20;70.70;;;;;;5114105;28;20446;-57
2022/06/19 01:57:09;;;;;;;13.00;4.70;;;24.10;71.10;;;;;;5114174;28;20434;-57
2022/06/19 01:59:40;;;;;;;7.77;4.50;;;24.10;71.20;;;;;;5114286;28;20814;-57
2022/06/19 02:02:09;;;;;;;11.70;5.20;;;24.10;71.20;;;;;;5114037;28;20515;-58
2022/06/19 02:04:37;;;;;;;10.13;5.00;;;24.00;72.20;;;;;;5114241;28;20546;-58
2022/06/19 02:07:07;;;;;;;12.90;5.47;;;24.00;71.40;;;;;;5113958;28;20526;-57
2022/06/19 02:09:36;;;;;;;11.00;4.50;;;24.00;71.80;;;;;;5114233;28;20498;-57
2022/06/19 02:12:05;;;;;;;11.53;4.40;;;23.90;71.70;;;;;;5114416;28;20467;-57
2022/06/19 02:14:34;;;;;;;7.67;5.00;;;23.90;71.80;;;;;;5113892;28;20538;-57
2022/06/19 02:17:07;;;;;;;8.87;4.77;;;24.10;71.10;;;;;;5114186;28;20442;-57
2022/06/19 02:19:35;;;;;;;10.80;5.30;;;24.10;70.70;;;;;;5113806;28;20477;-57
2022/06/19 02:22:02;;;;;;;11.00;5.40;;;23.90;71.00;;;;;;5114104;28;20445;-57
2022/06/19 02:24:30;;;;;;;6.53;4.77;;;23.90;71.30;;;;;;5114118;28;20465;-57
2022/06/19 02:26:57;;;;;;;6.20;4.90;;;23.90;71.60;;;;;;5114080;28;20482;-57
2022/06/19 02:29:25;;;;;;;12.83;5.33;;;24.00;70.90;;;;;;5113725;28;20561;-57
2022/06/19 02:31:55;;;;;;;9.23;4.53;;;24.10;70.70;;;;;;5113698;28;20443;-57
2022/06/19 02:34:26;;;;;;;10.77;4.60;;;24.20;70.50;;;;;;5114640;28;20437;-58
2022/06/19 02:36:56;;;;;;;12.60;5.07;;;24.30;69.70;;;;;;5118142;28;20423;-57
2022/06/19 02:39:37;;;;;;;10.30;4.60;;;24.40;69.30;;;;;;5118418;28;20481;-58
2022/06/19 02:42:18;;;;;;;11.10;4.17;;;24.30;68.20;;;;;;5118209;28;20530;-57
2022/06/19 02:44:45;;;;;;;16.00;5.43;;;24.30;68.30;;;;;;5117777;28;20480;-57
2022/06/19 02:47:14;;;;;;;11.23;4.60;;;24.30;69.50;;;;;;5117932;28;20506;-57
2022/06/19 02:49:41;;;;;;;13.30;4.93;;;24.30;69.30;;;;;;5117798;28;20555;-57
2022/06/19 02:52:11;;;;;;;11.03;5.00;;;24.30;69.00;;;;;;5117411;28;20523;-57
2022/06/19 02:54:39;;;;;;;11.90;4.23;;;24.30;68.90;;;;;;5117469;28;20478;-57
2022/06/19 02:57:07;;;;;;;9.47;4.17;;;24.20;69.00;;;;;;5117509;28;20527;-57
2022/06/19 02:59:36;;;;;;;7.17;4.73;;;24.20;69.30;;;;;;5117704;28;20451;-57
2022/06/19 03:02:03;;;;;;;7.47;4.60;;;24.00;68.30;;;;;;5117614;28;20525;-57
2022/06/19 03:04:35;;;;;;;11.00;4.97;;;24.00;69.10;;;;;;5117294;27;20537;-57
2022/06/19 03:07:02;;;;;;;8.60;4.43;;;24.00;69.80;;;;;;5117343;28;20409;-57
2022/06/19 03:09:30;;;;;;;9.43;4.63;;;24.10;69.70;;;;;;5117402;28;20489;-57
2022/06/19 03:11:57;;;;;;;12.63;4.37;;;23.90;70.00;;;;;;5117596;28;20458;-56
2022/06/19 03:14:25;;;;;;;7.37;4.27;;;23.80;69.90;;;;;;5117109;28;20442;-58
2022/06/19 03:16:52;;;;;;;8.60;4.63;;;23.70;70.50;;;;;;5117018;28;20442;-57
2022/06/19 03:19:19;;;;;;;15.47;4.80;;;23.50;70.50;;;;;;5117279;28;20545;-57
2022/06/19 03:21:49;;;;;;;8.40;4.23;;;23.60;71.30;;;;;;5117280;28;20442;-58
2022/06/19 03:24:16;;;;;;;6.33;3.53;;;23.70;71.10;;;;;;5116939;27;20438;-57
2022/06/19 03:26:43;;;;;;;5.23;4.30;;;23.90;71.10;;;;;;5116868;28;20833;-57
2022/06/19 03:29:11;;;;;;;11.03;4.70;;;23.80;71.40;;;;;;5116738;28;20968;-57
2022/06/19 03:31:38;;;;;;;8.33;4.80;;;23.50;71.60;;;;;;5116770;27;20449;-57
2022/06/19 03:34:05;;;;;;;10.50;4.80;;;23.50;71.70;;;;;;5116941;28;20532;-58
2022/06/19 03:36:33;;;;;;;9.90;4.80;;;23.40;72.00;;;;;;5116994;28;20525;-58
2022/06/19 03:39:01;;;;;;;8.67;5.60;;;23.40;73.80;;;;;;5116544;28;20466;-57
2022/06/19 03:41:28;;;;;;;9.40;4.83;;;23.50;72.50;;;;;;5116878;28;20492;-57
2022/06/19 03:43:56;;;;;;;9.57;4.77;;;23.60;72.60;;;;;;5116843;28;20443;-57
2022/06/19 03:46:23;;;;;;;10.93;4.73;;;23.40;72.90;;;;;;5115387;28;20480;-57
2022/06/19 03:48:52;;;;;;;10.57;4.40;;;23.30;73.30;;;;;;5116634;28;20474;-57
2022/06/19 03:51:22;;;;;;;10.43;4.83;;;23.20;75.40;;;;;;5116661;28;20526;-57
2022/06/19 03:53:51;;;;;;;11.57;4.77;;;23.40;74.30;;;;;;5116636;27;20473;-57
2022/06/19 03:56:22;;;;;;;10.60;4.40;;;23.40;73.90;;;;;;5116254;28;20530;-57
2022/06/19 03:58:49;;;;;;;14.10;4.73;;;23.30;75.00;;;;;;5116523;28;20438;-57
2022/06/19 04:01:18;;;;;;;9.23;5.00;;;23.30;74.00;;;;;;5116538;28;20533;-57
2022/06/19 04:03:46;;;;;;;10.30;5.50;;;23.20;74.40;;;;;;5116459;28;20443;-57
2022/06/19 04:06:14;;;;;;;10.20;4.70;;;23.20;77.10;;;;;;5116417;28;20450;-57
2022/06/19 04:08:44;;;;;;;7.93;4.07;;;23.40;77.20;;;;;;5115975;28;20443;-57
2022/06/19 04:11:12;;;;;;;8.20;4.53;;;23.60;75.40;;;;;;5116610;28;20505;-57
2022/06/19 04:13:40;;;;;;;7.10;4.33;;;23.60;77.40;;;;;;5116134;28;20572;-57
2022/06/19 04:16:09;;;;;;;9.77;5.10;;;23.70;75.20;;;;;;5116253;28;20866;-57
2022/06/19 04:18:36;;;;;;;7.90;4.17;;;23.70;74.40;;;;;;5115788;28;20537;-57
2022/06/19 04:21:04;;;;;;;8.07;4.40;;;23.80;75.40;;;;;;5116117;27;20521;-57
2022/06/19 04:23:31;;;;;;;6.67;4.10;;;23.80;75.60;;;;;;5115772;27;20794;-57
2022/06/19 04:25:59;;;;;;;9.70;5.20;;;23.80;76.00;;;;;;5116031;28;20541;-57
2022/06/19 04:28:26;;;;;;;13.83;5.40;;;23.80;77.20;;;;;;5115956;28;20469;-57
2022/06/19 04:30:55;;;;;;;8.23;4.73;;;23.70;78.30;;;;;;5115566;28;20450;-58
2022/06/19 04:33:22;;;;;;;8.90;5.10;;;23.80;76.80;;;;;;5115735;28;20561;-57
2022/06/19 04:35:50;;;;;;;9.57;5.07;;;23.80;76.00;;;;;;5115812;28;20482;-57
2022/06/19 04:38:17;;;;;;;11.30;4.90;;;23.90;76.70;;;;;;5115788;28;20525;-57
2022/06/19 04:40:45;;;;;;;7.53;4.33;;;23.90;76.80;;;;;;5115681;28;20834;-57
2022/06/19 04:43:14;;;;;;;6.80;4.27;;;23.90;77.10;;;;;;5115344;28;20450;-57
2022/06/19 04:45:41;;;;;;;11.80;3.70;;;23.90;77.10;;;;;;5115253;28;20474;-57
2022/06/19 04:48:10;;;;;;;7.07;4.83;;;24.00;76.80;;;;;;5115605;28;20526;-57
2022/06/19 04:50:42;;;;;;;9.00;4.90;;;24.00;79.60;;;;;;5115283;28;20517;-56
2022/06/19 04:53:09;;;;;;;12.80;4.93;;;24.00;78.70;;;;;;5115070;28;20565;-57
2022/06/19 04:55:36;;;;;;;8.40;4.53;;;23.90;79.50;;;;;;5115451;28;20442;-57
2022/06/19 04:58:04;;;;;;;5.10;4.17;;;23.90;80.70;;;;;;5114960;28;20946;-57
2022/06/19 05:00:32;;;;;;;7.10;3.90;;;23.80;79.90;;;;;;5115011;28;20447;-57
2022/06/19 05:02:59;;;;;;;13.50;5.23;;;24.00;80.10;;;;;;5115292;28;20443;-57
2022/06/19 05:05:28;;;;;;;10.77;5.97;;;24.10;80.60;;;;;;5114929;28;20447;-56
2022/06/19 05:07:55;;;;;;;10.63;5.20;;;24.20;81.30;;;;;;5115303;27;20458;-57
2022/06/19 05:10:22;;;;;;;4.03;3.60;;;24.30;80.40;;;;;;5114770;28;20475;-57
2022/06/19 05:12:54;;;;;;;6.43;4.80;;;24.40;75.90;;;;;;5114724;28;20843;-57
2022/06/19 05:15:22;;;;;;;13.90;5.80;;;24.50;76.60;;;;;;5114815;28;20893;-57
2022/06/19 05:17:49;;;;;;;12.73;4.97;;;24.50;78.10;;;;;;5114711;28;20446;-57
2022/06/19 05:20:16;;;;;;;11.80;5.10;;;24.50;77.50;;;;;;5114888;28;20888;-57
2022/06/19 05:22:45;;;;;;;12.77;5.90;;;24.50;73.90;;;;;;5114926;28;20443;-57
2022/06/19 05:25:13;;;;;;;8.30;4.53;;;24.50;74.10;;;;;;5114499;28;20541;-58
2022/06/19 05:27:41;;;;;;;13.83;4.20;;;24.50;74.10;;;;;;5114749;28;20767;-57
2022/06/19 05:30:12;;;;;;;10.63;4.97;;;24.70;75.20;;;;;;5114663;28;20477;-57
2022/06/19 05:32:40;;;;;;;9.27;4.83;;;24.80;73.80;;;;;;5114426;28;20492;-57
2022/06/19 05:35:08;;;;;;;11.23;4.73;;;24.80;75.00;;;;;;5114695;28;20446;-57
2022/06/19 05:37:35;;;;;;;16.40;5.57;;;24.70;75.20;;;;;;5114140;28;20431;-57
2022/06/19 05:40:05;;;;;;;14.43;4.93;;;24.80;72.90;;;;;;5114122;28;20462;-58
2022/06/19 05:42:32;;;;;;;8.90;4.80;;;24.90;73.40;;;;;;5114278;28;20905;-58
2022/06/19 05:44:59;;;;;;;11.70;5.10;;;25.00;71.40;;;;;;5114240;28;20523;-56
2022/06/19 05:47:26;;;;;;;11.30;4.93;;;25.10;71.30;;;;;;5114554;28;20455;-57
2022/06/19 05:49:54;;;;;;;14.93;5.20;;;25.10;71.00;;;;;;5114085;28;20462;-57
2022/06/19 05:52:24;;;;;;;14.17;5.40;;;25.10;70.00;;;;;;5114459;28;20474;-56
2022/06/19 05:54:52;;;;;;;7.37;4.90;;;25.20;71.10;;;;;;5114379;28;20553;-56
2022/06/19 05:57:22;;;;;;;13.03;5.70;;;25.40;72.80;;;;;;5114021;28;20478;-56
2022/06/19 05:59:50;;;;;;;14.83;4.90;;;25.50;69.70;;;;;;5114018;28;20463;-56
2022/06/19 06:02:21;;;;;;;11.93;5.17;;;25.50;69.40;;;;;;5114349;28;20443;-56
2022/06/19 06:04:48;;;;;;;11.97;5.27;;;25.50;69.90;;;;;;5114073;28;20901;-56
2022/06/19 06:07:15;;;;;;;14.80;5.27;;;25.50;69.60;;;;;;5113997;28;21032;-56
2022/06/19 06:09:43;;;;;;;14.87;4.60;;;25.70;69.80;;;;;;5113637;28;20821;-56
2022/06/19 06:12:10;;;;;;;14.60;6.37;;;;;;;;;;5114389;28;20486;-56
2022/06/19 06:14:39;;;;;;;19.53;8.20;;;25.90;94.90;;;;;;5113757;28;20478;-56
2022/06/19 06:17:06;;;;;;;12.57;4.97;;;25.90;81.10;;;;;;5113954;28;20425;-56
2022/06/19 06:19:34;;;;;;;17.07;4.83;;;26.00;68.70;;;;;;5114059;28;20843;-57
2022/06/19 06:22:03;;;;;;;13.17;6.13;;;26.10;68.70;;;;;;5113813;28;20448;-57
2022/06/19 06:24:30;;;;;;;13.60;5.93;;;26.20;68.40;;;;;;5113748;28;20964;-57
2022/06/19 06:26:58;;;;;;;12.23;4.60;;;26.30;69.60;;;;;;5113706;28;20541;-57
2022/06/19 06:29:25;;;;;;;21.40;5.37;;;26.40;69.20;;;;;;5114843;28;20466;-57
2022/06/19 06:31:56;;;;;;;10.30;5.20;;;26.50;68.60;;;;;;5113763;28;20442;-58
2022/06/19 06:34:23;;;;;;;15.33;5.50;;;26.60;68.30;;;;;;5114857;28;20466;-58
2022/06/19 06:36:50;;;;;;;12.70;5.70;;;26.70;68.40;;;;;;5113972;28;20446;-57
2022/06/19 06:39:17;;;;;;;13.03;5.07;;;26.80;68.80;;;;;;5113658;28;20488;-57
2022/06/19 06:41:45;;;;;;;13.57;4.67;;;26.90;67.90;;;;;;5114315;28;20435;-57
2022/06/19 06:44:13;;;;;;;10.60;4.80;;;27.00;68.00;;;;;;5114716;28;20760;-57
2022/06/19 06:46:41;;;;;;;19.53;4.50;;;27.10;67.70;;;;;;5113354;28;20506;-57
2022/06/19 06:49:10;;;;;;;14.10;5.20;;;27.30;68.10;;;;;;5113800;28;20477;-57
2022/06/19 06:51:37;;;;;;;17.73;5.40;;;27.60;67.30;;;;;;5113504;28;20451;-57
2022/06/19 06:54:05;;;;;;;10.53;4.73;;;27.70;67.40;;;;;;5113465;28;20521;-57
2022/06/19 06:56:34;;;;;;;14.93;5.50;;;27.80;67.80;;;;;;5114321;28;20537;-57
2022/06/19 06:59:01;;;;;;;12.87;6.10;;;28.00;67.40;;;;;;5113670;28;20545;-57
2022/06/19 07:01:29;;;;;;;11.73;4.97;;;28.30;66.70;;;;;;5113501;28;20449;-57
2022/06/19 07:03:56;;;;;;;17.20;5.90;;;28.50;65.90;;;;;;5113413;28;20442;-57
2022/06/19 07:06:28;;;;;;;19.33;6.50;;;28.50;66.40;;;;;;5113432;28;20442;-57
2022/06/19 07:08:55;;;;;;;10.90;4.90;;;28.60;64.80;;;;;;5113609;28;20458;-58
2022/06/19 07:11:25;;;;;;;9.80;5.40;;;28.50;65.70;;;;;;5113656;28;20523;-58
2022/06/19 07:13:53;;;;;;;12.60;5.40;;;28.40;65.10;;;;;;5113812;28;20466;-57
2022/06/19 07:16:20;;;;;;;14.47;5.67;;;28.40;65.40;;;;;;5113328;28;20897;-57
2022/06/19 07:18:48;;;;;;;15.90;6.20;;;28.30;65.80;;;;;;5113280;28;20537;-57
2022/06/19 07:21:15;;;;;;;11.87;5.90;;;28.40;65.50;;;;;;5114171;28;20537;-58
2022/06/19 07:23:43;;;;;;;17.40;5.47;;;28.40;65.50;;;;;;5117195;28;20495;-58
2022/06/19 07:26:12;;;;;;;10.67;6.47;;;28.40;66.00;;;;;;5116883;28;20533;-57
2022/06/19 07:28:40;;;;;;;11.07;5.40;;;28.60;66.10;;;;;;5117132;28;20891;-58
2022/06/19 07:31:07;;;;;;;16.50;7.87;;;29.00;65.60;;;;;;5116799;28;20453;-58
2022/06/19 07:33:34;;;;;;;12.53;5.93;;;29.50;65.10;;;;;;5117466;28;20482;-58
2022/06/19 07:36:01;;;;;;;18.60;6.87;;;29.90;64.80;;;;;;5116946;28;20442;-57
2022/06/19 07:38:29;;;;;;;10.57;6.10;;;30.40;64.10;;;;;;5116998;28;20489;-58
2022/06/19 07:40:57;;;;;;;12.67;5.70;;;30.90;62.70;;;;;;5116663;28;20486;-57
2022/06/19 07:43:26;;;;;;;15.10;5.20;;;31.20;61.30;;;;;;5116811;28;20531;-58
2022/06/19 07:45:54;;;;;;;10.37;5.40;;;31.80;60.70;;;;;;5116252;28;20486;-58
2022/06/19 07:51:06;;;;;;;12.73;6.03;;;32.90;59.70;;;;;;5116463;28;20402;-58
2022/06/19 07:53:33;;;;;;;12.47;5.50;;;33.20;60.40;;;;;;5116536;28;20529;-58
2022/06/19 07:56:02;;;;;;;17.57;6.63;;;33.10;59.20;;;;;;5116385;28;20437;-58
2022/06/19 07:58:29;;;;;;;10.07;5.20;;;33.10;59.50;;;;;;5116583;28;20451;-58
2022/06/19 08:00:56;;;;;;;12.37;5.67;;;33.20;58.90;;;;;;5116456;28;20466;-58
2022/06/19 08:03:24;;;;;;;10.73;6.20;;;33.30;59.10;;;;;;5116165;28;20448;-58
2022/06/19 08:05:51;;;;;;;10.87;5.87;;;33.70;58.80;;;;;;5116148;28;20449;-58
2022/06/19 08:08:21;;;;;;;9.40;5.10;;;34.00;59.40;;;;;;5116378;28;20447;-59
2022/06/19 08:10:51;;;;;;;12.83;6.20;;;34.60;59.20;;;;;;5115910;28;20462;-58
2022/06/19 08:13:21;;;;;;;10.50;5.20;;;34.90;58.90;;;;;;5116324;28;20837;-58
2022/06/19 08:15:48;;;;;;;18.07;6.43;;;35.10;58.20;;;;;;5115793;28;20513;-58
2022/06/19 08:18:16;;;;;;;18.10;7.00;;;35.40;58.20;;;;;;5116247;28;20441;-58
2022/06/19 08:20:43;;;;;;;8.43;5.40;;;35.80;58.50;;;;;;5116127;27;20462;-58
2022/06/19 08:23:10;;;;;;;13.27;6.43;;;35.90;57.80;;;;;;5115749;28;20456;-58
2022/06/19 08:25:38;;;;;;;13.70;6.17;;;35.40;57.30;;;;;;5116047;28;20524;-58
2022/06/19 08:28:06;;;;;;;11.03;8.20;;;35.70;58.50;;;;;;5115977;28;20528;-58
2022/06/19 08:30:37;;;;;;;13.07;8.80;;;35.70;55.00;;;;;;5115587;28;20469;-58
2022/06/19 08:33:05;;;;;;;9.17;8.20;;;35.60;55.00;;;;;;5115509;28;20841;-58
2022/06/19 08:35:36;;;;;;;11.40;7.70;;;35.30;54.90;;;;;;5115795;28;20839;-58
2022/06/19 08:38:07;;;;;;;11.30;8.10;;;35.40;55.10;;;;;;5115513;28;20905;-58
2022/06/19 08:40:49;;;;;;;24.27;9.87;;;35.60;54.60;;;;;;5115491;28;20561;-58
2022/06/19 08:43:34;;;;;;;17.80;8.73;;;36.00;54.30;;;;;;5115439;28;20466;-58
2022/06/19 08:46:14;;;;;;;12.10;9.10;;;35.60;53.90;;;;;;5115335;28;20492;-58
2022/06/19 08:49:01;;;;;;;10.07;8.97;;;35.80;54.20;;;;;;5115551;28;20490;-59
2022/06/19 08:51:37;;;;;;;12.40;7.33;;;36.40;54.00;;;;;;5115559;28;20502;-58
2022/06/19 08:54:19;;;;;;;12.60;8.73;;;36.60;51.90;;;;;;5115435;28;20884;-58
2022/06/19 08:56:54;;;;;;;15.33;9.13;;;36.50;51.90;;;;;;5115155;28;20462;-58
2022/06/19 08:59:33;;;;;;;13.20;8.67;;;36.90;51.80;;;;;;5115049;28;21009;-58
2022/06/19 09:02:07;;;;;;;10.53;8.60;;;37.20;51.30;;;;;;5115140;28;20475;-58
2022/06/19 09:07:37;;;;;;;15.60;8.07;;;36.60;48.30;;;;;;5115367;28;20401;-58
2022/06/19 09:10:27;;;;;;;17.57;8.30;;;36.50;47.80;;;;;;5115054;28;20569;-58
2022/06/19 09:13:10;;;;;;;8.73;7.57;;;36.30;47.30;;;;;;5115104;28;20450;-58
2022/06/19 09:15:43;;;;;;;12.23;8.57;;;36.50;46.30;;;;;;5115088;28;20516;-58
2022/06/19 09:18:20;;;;;;;17.63;9.00;;;36.10;46.40;;;;;;5114994;28;20446;-58
2022/06/19 09:20:59;;;;;;;12.73;8.97;;;36.50;46.20;;;;;;5114680;28;20465;-57
2022/06/19 09:23:58;;;;;;;10.53;7.60;;;36.70;46.60;;;;;;5115008;28;20429;-58
2022/06/19 09:26:29;;;;;;;9.77;7.10;;;36.60;46.40;;;;;;5115086;28;20460;-58
2022/06/19 09:29:02;;;;;;;13.07;7.17;;;36.30;46.00;;;;;;5115567;28;20521;-58
2022/06/19 09:31:35;;;;;;;12.80;7.00;;;36.50;46.10;;;;;;5114902;28;20429;-58
2022/06/19 09:34:10;;;;;;;15.03;7.40;;;36.90;45.00;;;;;;5114778;28;20426;-58
2022/06/19 09:36:43;;;;;;;12.50;7.53;;;37.30;46.00;;;;;;5114677;28;20433;-58
2022/06/19 09:39:16;;;;;;;13.53;6.60;;;37.40;45.60;;;;;;5114342;28;21035;-58
2022/06/19 09:41:48;;;;;;;13.00;7.63;;;37.70;44.80;;;;;;5114693;28;20489;-58
2022/06/19 09:44:23;;;;;;;9.80;6.90;;;37.10;44.80;;;;;;5113843;28;20429;-58
2022/06/19 09:46:57;;;;;;;14.13;6.67;;;37.20;45.00;;;;;;5073972;28;20419;-58
2022/06/19 09:49:36;;;;;;;6.57;5.97;;;37.20;45.50;;;;;;5073601;28;20558;-58
2022/06/19 09:52:11;;;;;;;7.47;6.80;;;37.50;44.40;;;;;;5073570;28;20546;-58
2022/06/19 09:54:43;;;;;;;14.63;6.20;;;38.20;45.10;;;;;;5073504;28;20527;-58
2022/06/19 09:57:15;;;;;;;10.00;6.80;;;38.00;44.50;;;;;;5073837;28;20428;-58
2022/06/19 09:59:47;;;;;;;11.00;6.27;;;38.10;43.90;;;;;;5073814;28;20454;-58
2022/06/19 10:02:21;;;;;;;8.03;6.03;;;37.90;44.00;;;;;;5074596;28;20515;-59
2022/06/19 10:04:55;;;;;;;10.83;6.60;;;37.10;42.70;;;;;;5074245;28;20519;-58
2022/06/19 10:07:28;;;;;;;8.93;5.90;;;37.20;42.50;;;;;;5073700;28;20456;-58
2022/06/19 10:10:00;;;;;;;8.53;6.70;;;37.20;41.90;;;;;;5073535;28;20491;-58
2022/06/19 10:12:33;;;;;;;12.67;6.53;;;37.00;42.10;;;;;;5073731;28;20424;-58
2022/06/19 10:15:06;;;;;;;12.47;6.50;;;36.70;42.50;;;;;;5074375;28;20496;-57
2022/06/19 10:17:46;;;;;;;11.03;6.77;;;36.80;42.60;;;;;;5073310;28;20435;-57
2022/06/19 10:20:17;;;;;;;9.80;6.77;;;36.70;42.70;;;;;;5073233;28;20565;-57
2022/06/19 10:22:58;;;;;;;9.00;7.03;;;36.60;43.40;;;;;;5073244;28;20792;-58
2022/06/19 10:25:50;;;;;;;12.20;7.43;;;37.10;42.90;;;;;;5073595;28;20510;-58
2022/06/19 10:28:33;;;;;;;12.30;6.53;;;37.30;43.40;;;;;;5073229;28;20431;-57
2022/06/19 10:31:11;;;;;;;10.03;6.60;;;36.70;42.60;;;;;;5073457;28;20443;-57
2022/06/19 10:33:55;;;;;;;9.60;6.90;;;36.40;42.40;;;;;;5073394;28;20427;-58
2022/06/19 10:36:33;;;;;;;7.53;6.10;;;36.40;43.20;;;;;;5073121;28;21060;-57
2022/06/19 10:39:13;;;;;;;10.33;6.77;;;36.50;42.90;;;;;;5073048;28;20546;-57
2022/06/19 10:42:05;;;;;;;11.37;6.10;;;36.70;43.20;;;;;;5073475;28;20455;-57
2022/06/19 10:44:48;;;;;;;14.43;6.57;;;36.60;42.60;;;;;;5076402;28;20420;-58
2022/06/19 10:47:22;;;;;;;12.70;7.83;;;36.70;43.30;;;;;;5113433;28;20897;-58
2022/06/19 10:50:02;;;;;;;9.03;7.50;;;36.80;43.00;;;;;;5113811;28;20514;-58
2022/06/19 10:52:43;;;;;;;12.63;7.37;;;36.70;42.60;;;;;;5113903;28;20457;-57
2022/06/19 10:55:24;;;;;;;8.47;7.07;;;36.90;42.90;;;;;;5114263;28;20452;-58
2022/06/19 10:58:03;;;;;;;8.93;6.13;;;36.90;42.90;;;;;;5118349;28;20502;-58
2022/06/19 11:00:30;;;;;;;10.47;6.53;;;37.00;42.90;;;;;;5117381;28;20465;-59
2022/06/19 11:05:54;;;;;;;14.90;8.13;;;37.60;42.10;;;;;;5117417;28;20494;-58
2022/06/19 11:08:24;;;;;;;14.70;6.13;;;37.50;42.80;;;;;;5117292;28;20436;-59
2022/06/19 11:10:54;;;;;;;8.33;6.30;;;37.40;43.00;;;;;;5117250;28;20968;-58
2022/06/19 11:13:21;;;;;;;8.90;7.27;;;37.60;42.20;;;;;;5117163;28;21015;-58
2022/06/19 11:16:01;;;;;;;7.77;6.33;;;37.70;41.50;;;;;;5117352;28;20564;-60
2022/06/19 11:18:28;;;;;;;13.30;8.00;;;37.60;42.20;;;;;;5117035;28;20509;-58
2022/06/19 11:21:01;;;;;;;12.80;6.87;;;37.70;41.30;;;;;;5117208;28;20470;-58
2022/06/19 11:23:35;;;;;;;8.60;6.60;;;37.50;41.30;;;;;;5117362;28;20426;-61
2022/06/19 11:26:09;;;;;;;8.37;6.93;;;37.40;41.60;;;;;;5117245;28;20470;-58
2022/06/19 11:28:44;;;;;;;8.90;6.90;;;37.50;41.10;;;;;;5116746;28;20440;-58
2022/06/19 11:31:15;;;;;;;12.30;6.47;;;37.50;41.50;;;;;;5117113;28;20505;-58
2022/06/19 11:33:43;;;;;;;11.57;7.17;;;37.80;41.20;;;;;;5116770;28;20441;-58
2022/06/19 11:36:29;;;;;;;9.47;6.30;;;37.90;41.40;;;;;;5116659;28;20561;-58
2022/06/19 11:39:02;;;;;;;9.93;5.90;;;38.00;40.80;;;;;;5116910;28;20533;-58
2022/06/19 11:41:35;;;;;;;10.47;6.50;;;37.90;40.70;;;;;;5117081;28;20525;-58
2022/06/19 11:44:06;;;;;;;6.63;5.57;;;37.70;40.70;;;;;;5116846;28;20445;-57
2022/06/19 11:46:44;;;;;;;12.53;6.40;;;37.20;41.00;;;;;;5116290;28;21040;-58
2022/06/19 11:49:29;;;;;;;10.90;7.03;;;37.60;40.60;;;;;;5116357;28;21028;-58
2022/06/19 11:51:59;;;;;;;8.60;6.33;;;37.50;40.50;;;;;;5116043;28;20457;-58
2022/06/19 11:54:31;;;;;;;10.60;6.23;;;37.50;40.20;;;;;;5116333;27;20521;-58
2022/06/19 11:56:58;;;;;;;8.50;6.30;;;37.70;40.60;;;;;;5116573;28;20502;-58
2022/06/19 11:59:35;;;;;;;13.20;7.63;;;37.70;40.80;;;;;;5116495;28;20552;-58
2022/06/19 12:02:05;;;;;;;9.03;6.07;;;38.10;41.10;;;;;;5116213;28;20513;-58
2022/06/19 12:04:38;;;;;;;17.40;7.10;;;38.80;41.10;;;;;;5116456;28;20528;-58
2022/06/19 12:07:14;;;;;;;14.00;8.53;;;38.50;40.60;;;;;;5115267;28;20433;-58
2022/06/19 12:09:44;;;;;;;8.37;6.17;;;38.60;40.60;;;;;;5116389;28;20544;-58
2022/06/19 12:12:19;;;;;;;11.13;6.53;;;37.90;40.70;;;;;;5116567;28;20789;-58
2022/06/19 12:15:00;;;;;;;14.43;5.70;;;37.40;40.40;;;;;;5116242;28;20458;-57
2022/06/19 12:17:38;;;;;;;12.37;7.10;;;37.40;40.00;;;;;;5116253;28;20430;-58
2022/06/19 12:20:21;;;;;;;12.13;6.37;;;37.50;39.80;;;;;;5116526;28;20438;-58
2022/06/19 12:22:51;;;;;;;13.27;6.10;;;37.70;40.40;;;;;;5115863;28;20433;-58
2022/06/19 12:25:41;;;;;;;10.50;6.40;;;38.00;40.50;;;;;;5116043;28;20536;-58
2022/06/19 12:28:18;;;;;;;10.17;6.43;;;38.30;41.20;;;;;;5113809;28;20533;-58
2022/06/19 12:30:49;;;;;;;16.27;7.40;;;37.90;40.60;;;;;;5115989;28;20940;-58
2022/06/19 12:33:24;;;;;;;9.00;6.13;;;37.80;40.40;;;;;;5115810;28;20429;-58
2022/06/19 12:35:52;;;;;;;8.50;6.30;;;38.20;41.50;;;;;;5115502;28;20465;-58
2022/06/19 12:38:22;;;;;;;16.20;7.83;;;38.30;40.70;;;;;;5115573;28;20882;-58
2022/06/19 12:41:26;;;;;;;10.27;6.90;;;38.20;40.00;;;;;;5115270;28;20565;-58
2022/06/19 12:44:07;;;;;;;14.30;6.63;;;38.10;39.90;;;;;;5115226;27;20452;-58
2022/06/19 12:46:45;;;;;;;10.53;5.80;;;37.70;40.40;;;;;;5115025;28;20509;-58
2022/06/19 12:49:26;;;;;;;6.40;5.80;;;37.50;40.10;;;;;;5115612;28;20561;-58
2022/06/19 12:51:57;;;;;;;8.70;6.07;;;37.80;40.40;;;;;;5115066;28;20518;-59
2022/06/19 12:54:58;;;;;;;11.13;6.00;;;38.00;40.40;;;;;;5115205;28;20536;-59
2022/06/19 12:57:43;;;;;;;14.77;7.10;;;37.80;40.10;;;;;;5115798;28;20506;-58
2022/06/19 13:00:26;;;;;;;9.00;6.23;;;38.00;39.60;;;;;;5114760;28;20989;-58
2022/06/19 13:03:29;;;;;;;9.33;6.00;;;37.80;40.00;;;;;;5114777;28;20512;-58
2022/06/19 13:06:07;;;;;;;18.97;6.83;;;37.60;40.50;;;;;;5112879;28;20877;-58
2022/06/19 13:08:42;;;;;;;12.87;6.70;;;37.60;40.50;;;;;;5114659;28;20436;-58
2022/06/19 13:11:23;;;;;;;14.57;7.30;;;37.40;39.60;;;;;;5115102;28;20442;-58